sensor_id;sensor_type;location;lat;lon;timestamp;P1;durP1;ratioP1;P2;durP2;ratioP2
8040;SDS011;4063;48.140;10.250;2023-04-24T00:00:53;2.00;;;1.80;;
8040;SDS011;4063;48.140;10.250;2023-04-24T00:03:21;2.63;;;1.73;;
8040;SDS011;4063;48.140;10.250;2023-04-24T00:05:47;2.00;;;1.70;;
8040;SDS011;4063;48.140;10.250;2023-04-24T00:08:13;2.70;;;1.77;;
8040;SDS011;4063;48.140;10.250;2023-04-24T00:10:39;2.10;;;1.60;;
8040;SDS011;4063;48.140;10.250;2023-04-24T00:13:05;1.80;;;1.63;;
8040;SDS011;4063;48.140;10.250;2023-04-24T00:15:31;2.67;;;1.97;;
8040;SDS011;4063;48.140;10.250;2023-04-24T00:17:58;1.57;;;1.47;;
8040;SDS011;4063;48.140;10.250;2023-04-24T00:20:24;1.90;;;1.70;;
8040;SDS011;4063;48.140;10.250;2023-04-24T00:22:50;2.80;;;1.70;;
8040;SDS011;4063;48.140;10.250;2023-04-24T00:25:16;3.43;;;2.13;;
8040;SDS011;4063;48.140;10.250;2023-04-24T00:27:42;2.43;;;1.70;;
8040;SDS011;4063;48.140;10.250;2023-04-24T00:30:08;1.73;;;1.63;;
8040;SDS011;4063;48.140;10.250;2023-04-24T00:32:34;2.57;;;1.67;;
8040;SDS011;4063;48.140;10.250;2023-04-24T00:35:00;3.57;;;1.87;;
8040;SDS011;4063;48.140;10.250;2023-04-24T00:37:26;2.43;;;2.10;;
8040;SDS011;4063;48.140;10.250;2023-04-24T00:39:52;2.60;;;2.10;;
8040;SDS011;4063;48.140;10.250;2023-04-24T00:42:18;1.83;;;1.73;;
8040;SDS011;4063;48.140;10.250;2023-04-24T00:44:44;3.47;;;1.87;;
8040;SDS011;4063;48.140;10.250;2023-04-24T00:47:10;1.90;;;1.80;;
8040;SDS011;4063;48.140;10.250;2023-04-24T00:49:36;2.37;;;1.80;;
8040;SDS011;4063;48.140;10.250;2023-04-24T00:52:02;2.17;;;1.97;;
8040;SDS011;4063;48.140;10.250;2023-04-24T00:54:32;1.97;;;1.80;;
8040;SDS011;4063;48.140;10.250;2023-04-24T00:56:58;3.03;;;1.87;;
8040;SDS011;4063;48.140;10.250;2023-04-24T00:59:25;2.30;;;1.97;;
8040;SDS011;4063;48.140;10.250;2023-04-24T01:01:51;2.83;;;1.83;;
8040;SDS011;4063;48.140;10.250;2023-04-24T01:04:17;1.93;;;1.67;;
8040;SDS011;4063;48.140;10.250;2023-04-24T01:06:43;2.77;;;1.70;;
8040;SDS011;4063;48.140;10.250;2023-04-24T01:09:10;2.80;;;1.90;;
8040;SDS011;4063;48.140;10.250;2023-04-24T01:11:37;3.30;;;1.60;;
8040;SDS011;4063;48.140;10.250;2023-04-24T01:14:03;2.00;;;1.83;;
8040;SDS011;4063;48.140;10.250;2023-04-24T01:16:29;2.50;;;2.30;;
8040;SDS011;4063;48.140;10.250;2023-04-24T01:18:55;4.73;;;2.20;;
8040;SDS011;4063;48.140;10.250;2023-04-24T01:21:21;2.20;;;2.00;;
8040;SDS011;4063;48.140;10.250;2023-04-24T01:23:49;2.77;;;2.00;;
8040;SDS011;4063;48.140;10.250;2023-04-24T01:26:16;2.73;;;2.33;;
8040;SDS011;4063;48.140;10.250;2023-04-24T01:28:44;2.23;;;2.00;;
8040;SDS011;4063;48.140;10.250;2023-04-24T01:31:11;4.23;;;2.83;;
8040;SDS011;4063;48.140;10.250;2023-04-24T01:33:37;2.20;;;2.00;;
8040;SDS011;4063;48.140;10.250;2023-04-24T01:36:03;2.40;;;2.20;;
8040;SDS011;4063;48.140;10.250;2023-04-24T01:38:29;4.23;;;2.33;;
8040;SDS011;4063;48.140;10.250;2023-04-24T01:40:55;2.60;;;2.40;;
8040;SDS011;4063;48.140;10.250;2023-04-24T01:43:21;4.33;;;2.00;;
8040;SDS011;4063;48.140;10.250;2023-04-24T01:45:47;3.80;;;2.07;;
8040;SDS011;4063;48.140;10.250;2023-04-24T01:48:13;2.37;;;2.17;;
8040;SDS011;4063;48.140;10.250;2023-04-24T01:50:39;2.20;;;2.00;;
8040;SDS011;4063;48.140;10.250;2023-04-24T01:53:05;2.37;;;1.90;;
8040;SDS011;4063;48.140;10.250;2023-04-24T01:55:31;6.10;;;2.20;;
8040;SDS011;4063;48.140;10.250;2023-04-24T01:57:57;2.00;;;1.80;;
8040;SDS011;4063;48.140;10.250;2023-04-24T02:00:25;4.23;;;2.33;;
8040;SDS011;4063;48.140;10.250;2023-04-24T02:02:51;2.90;;;2.00;;
8040;SDS011;4063;48.140;10.250;2023-04-24T02:05:17;2.27;;;2.07;;
8040;SDS011;4063;48.140;10.250;2023-04-24T02:07:43;2.40;;;1.70;;
8040;SDS011;4063;48.140;10.250;2023-04-24T02:10:09;3.27;;;2.30;;
8040;SDS011;4063;48.140;10.250;2023-04-24T02:12:35;3.23;;;2.17;;
8040;SDS011;4063;48.140;10.250;2023-04-24T02:15:01;2.90;;;2.30;;
8040;SDS011;4063;48.140;10.250;2023-04-24T02:17:27;2.67;;;2.07;;
8040;SDS011;4063;48.140;10.250;2023-04-24T02:19:53;4.33;;;2.00;;
8040;SDS011;4063;48.140;10.250;2023-04-24T02:22:19;2.90;;;2.23;;
8040;SDS011;4063;48.140;10.250;2023-04-24T02:24:45;2.70;;;2.50;;
8040;SDS011;4063;48.140;10.250;2023-04-24T02:27:11;2.40;;;2.20;;
8040;SDS011;4063;48.140;10.250;2023-04-24T02:29:37;4.00;;;2.83;;
8040;SDS011;4063;48.140;10.250;2023-04-24T02:32:03;4.00;;;2.17;;
8040;SDS011;4063;48.140;10.250;2023-04-24T02:34:29;4.63;;;2.60;;
8040;SDS011;4063;48.140;10.250;2023-04-24T02:36:55;2.47;;;2.27;;
8040;SDS011;4063;48.140;10.250;2023-04-24T02:39:21;2.80;;;2.50;;
8040;SDS011;4063;48.140;10.250;2023-04-24T02:41:47;2.80;;;2.10;;
8040;SDS011;4063;48.140;10.250;2023-04-24T02:44:13;2.73;;;2.10;;
8040;SDS011;4063;48.140;10.250;2023-04-24T02:46:39;2.60;;;2.10;;
8040;SDS011;4063;48.140;10.250;2023-04-24T02:49:06;3.00;;;1.90;;
8040;SDS011;4063;48.140;10.250;2023-04-24T02:51:32;2.70;;;1.80;;
8040;SDS011;4063;48.140;10.250;2023-04-24T02:53:58;2.70;;;2.03;;
8040;SDS011;4063;48.140;10.250;2023-04-24T02:56:24;3.53;;;2.03;;
8040;SDS011;4063;48.140;10.250;2023-04-24T02:58:50;3.67;;;1.93;;
8040;SDS011;4063;48.140;10.250;2023-04-24T03:01:16;2.00;;;1.80;;
8040;SDS011;4063;48.140;10.250;2023-04-24T03:03:42;2.23;;;2.03;;
8040;SDS011;4063;48.140;10.250;2023-04-24T03:06:08;2.17;;;1.70;;
8040;SDS011;4063;48.140;10.250;2023-04-24T03:08:35;2.10;;;1.90;;
8040;SDS011;4063;48.140;10.250;2023-04-24T03:11:01;3.90;;;2.20;;
8040;SDS011;4063;48.140;10.250;2023-04-24T03:13:27;3.17;;;2.00;;
8040;SDS011;4063;48.140;10.250;2023-04-24T03:15:52;2.00;;;1.80;;
8040;SDS011;4063;48.140;10.250;2023-04-24T03:18:19;2.17;;;2.03;;
8040;SDS011;4063;48.140;10.250;2023-04-24T03:20:45;2.70;;;1.80;;
8040;SDS011;4063;48.140;10.250;2023-04-24T03:23:12;1.63;;;1.53;;
8040;SDS011;4063;48.140;10.250;2023-04-24T03:25:38;4.00;;;1.90;;
8040;SDS011;4063;48.140;10.250;2023-04-24T03:28:04;3.23;;;1.70;;
8040;SDS011;4063;48.140;10.250;2023-04-24T03:30:30;1.93;;;1.67;;
8040;SDS011;4063;48.140;10.250;2023-04-24T03:32:56;3.77;;;1.77;;
8040;SDS011;4063;48.140;10.250;2023-04-24T03:35:22;2.23;;;1.80;;
8040;SDS011;4063;48.140;10.250;2023-04-24T03:37:48;2.27;;;1.80;;
8040;SDS011;4063;48.140;10.250;2023-04-24T03:40:14;2.57;;;1.93;;
8040;SDS011;4063;48.140;10.250;2023-04-24T03:42:40;2.20;;;2.00;;
8040;SDS011;4063;48.140;10.250;2023-04-24T03:45:06;2.73;;;1.97;;
8040;SDS011;4063;48.140;10.250;2023-04-24T03:47:32;2.13;;;1.73;;
8040;SDS011;4063;48.140;10.250;2023-04-24T03:49:58;2.17;;;1.97;;
8040;SDS011;4063;48.140;10.250;2023-04-24T03:52:24;2.67;;;1.93;;
8040;SDS011;4063;48.140;10.250;2023-04-24T03:54:50;2.27;;;1.80;;
8040;SDS011;4063;48.140;10.250;2023-04-24T03:57:16;1.93;;;1.70;;
8040;SDS011;4063;48.140;10.250;2023-04-24T03:59:42;2.20;;;1.80;;
8040;SDS011;4063;48.140;10.250;2023-04-24T04:02:08;2.40;;;1.77;;
8040;SDS011;4063;48.140;10.250;2023-04-24T04:04:34;1.90;;;1.70;;
8040;SDS011;4063;48.140;10.250;2023-04-24T04:07:00;1.67;;;1.57;;
8040;SDS011;4063;48.140;10.250;2023-04-24T04:09:27;2.33;;;1.70;;
8040;SDS011;4063;48.140;10.250;2023-04-24T04:11:54;3.47;;;1.83;;
8040;SDS011;4063;48.140;10.250;2023-04-24T04:14:20;1.60;;;1.50;;
8040;SDS011;4063;48.140;10.250;2023-04-24T04:16:46;1.60;;;1.50;;
8040;SDS011;4063;48.140;10.250;2023-04-24T04:19:12;1.50;;;1.40;;
8040;SDS011;4063;48.140;10.250;2023-04-24T04:21:38;1.63;;;1.30;;
8040;SDS011;4063;48.140;10.250;2023-04-24T04:24:04;1.57;;;1.47;;
8040;SDS011;4063;48.140;10.250;2023-04-24T04:26:30;2.93;;;1.57;;
8040;SDS011;4063;48.140;10.250;2023-04-24T04:28:57;3.10;;;1.83;;
8040;SDS011;4063;48.140;10.250;2023-04-24T04:31:23;2.57;;;1.60;;
8040;SDS011;4063;48.140;10.250;2023-04-24T04:33:49;1.97;;;1.77;;
8040;SDS011;4063;48.140;10.250;2023-04-24T04:36:15;1.67;;;1.50;;
8040;SDS011;4063;48.140;10.250;2023-04-24T04:38:43;2.43;;;1.57;;
8040;SDS011;4063;48.140;10.250;2023-04-24T04:41:09;2.33;;;1.53;;
8040;SDS011;4063;48.140;10.250;2023-04-24T04:43:35;1.60;;;1.50;;
8040;SDS011;4063;48.140;10.250;2023-04-24T04:46:03;1.73;;;1.40;;
8040;SDS011;4063;48.140;10.250;2023-04-24T04:48:29;1.50;;;1.40;;
8040;SDS011;4063;48.140;10.250;2023-04-24T04:50:56;2.63;;;1.40;;
8040;SDS011;4063;48.140;10.250;2023-04-24T04:53:22;2.83;;;1.50;;
8040;SDS011;4063;48.140;10.250;2023-04-24T04:55:48;3.40;;;1.50;;
8040;SDS011;4063;48.140;10.250;2023-04-24T04:58:14;1.83;;;1.50;;
8040;SDS011;4063;48.140;10.250;2023-04-24T05:00:40;2.40;;;1.23;;
8040;SDS011;4063;48.140;10.250;2023-04-24T05:03:06;1.60;;;1.50;;
8040;SDS011;4063;48.140;10.250;2023-04-24T05:05:32;2.53;;;1.40;;
8040;SDS011;4063;48.140;10.250;2023-04-24T05:07:58;1.57;;;1.47;;
8040;SDS011;4063;48.140;10.250;2023-04-24T05:10:24;1.67;;;1.57;;
8040;SDS011;4063;48.140;10.250;2023-04-24T05:12:50;1.80;;;1.33;;
8040;SDS011;4063;48.140;10.250;2023-04-24T05:15:16;1.40;;;1.30;;
8040;SDS011;4063;48.140;10.250;2023-04-24T05:17:42;3.37;;;1.23;;
8040;SDS011;4063;48.140;10.250;2023-04-24T05:20:08;2.50;;;1.40;;
8040;SDS011;4063;48.140;10.250;2023-04-24T05:22:34;1.13;;;1.10;;
8040;SDS011;4063;48.140;10.250;2023-04-24T05:25:01;1.30;;;1.20;;
8040;SDS011;4063;48.140;10.250;2023-04-24T05:27:27;1.67;;;1.30;;
8040;SDS011;4063;48.140;10.250;2023-04-24T05:29:53;1.80;;;1.23;;
8040;SDS011;4063;48.140;10.250;2023-04-24T05:32:19;1.33;;;1.23;;
8040;SDS011;4063;48.140;10.250;2023-04-24T05:34:45;1.47;;;1.37;;
8040;SDS011;4063;48.140;10.250;2023-04-24T05:37:11;1.10;;;1.10;;
8040;SDS011;4063;48.140;10.250;2023-04-24T05:39:37;1.00;;;1.00;;
8040;SDS011;4063;48.140;10.250;2023-04-24T05:42:03;1.33;;;1.20;;
8040;SDS011;4063;48.140;10.250;2023-04-24T05:44:29;1.00;;;1.00;;
8040;SDS011;4063;48.140;10.250;2023-04-24T05:46:55;1.10;;;1.00;;
8040;SDS011;4063;48.140;10.250;2023-04-24T05:49:22;0.90;;;0.90;;
8040;SDS011;4063;48.140;10.250;2023-04-24T05:51:48;1.10;;;1.00;;
8040;SDS011;4063;48.140;10.250;2023-04-24T05:54:14;1.10;;;1.00;;
8040;SDS011;4063;48.140;10.250;2023-04-24T05:56:40;1.20;;;1.10;;
8040;SDS011;4063;48.140;10.250;2023-04-24T05:59:06;2.33;;;1.00;;
8040;SDS011;4063;48.140;10.250;2023-04-24T06:01:32;1.10;;;1.00;;
8040;SDS011;4063;48.140;10.250;2023-04-24T06:03:58;0.80;;;0.80;;
8040;SDS011;4063;48.140;10.250;2023-04-24T06:06:24;2.00;;;1.00;;
8040;SDS011;4063;48.140;10.250;2023-04-24T06:08:50;1.10;;;0.80;;
8040;SDS011;4063;48.140;10.250;2023-04-24T06:11:16;1.73;;;0.87;;
8040;SDS011;4063;48.140;10.250;2023-04-24T06:13:42;0.80;;;0.80;;
8040;SDS011;4063;48.140;10.250;2023-04-24T06:16:08;0.90;;;0.90;;
8040;SDS011;4063;48.140;10.250;2023-04-24T06:18:35;0.90;;;0.90;;
8040;SDS011;4063;48.140;10.250;2023-04-24T06:21:01;0.70;;;0.70;;
8040;SDS011;4063;48.140;10.250;2023-04-24T06:23:27;1.00;;;0.90;;
8040;SDS011;4063;48.140;10.250;2023-04-24T06:25:52;0.73;;;0.70;;
8040;SDS011;4063;48.140;10.250;2023-04-24T06:28:18;0.73;;;0.73;;
8040;SDS011;4063;48.140;10.250;2023-04-24T06:30:45;0.87;;;0.60;;
8040;SDS011;4063;48.140;10.250;2023-04-24T06:33:10;1.17;;;0.80;;
8040;SDS011;4063;48.140;10.250;2023-04-24T06:35:37;0.80;;;0.80;;
8040;SDS011;4063;48.140;10.250;2023-04-24T06:38:03;2.07;;;1.20;;
8040;SDS011;4063;48.140;10.250;2023-04-24T06:40:29;1.03;;;0.80;;
8040;SDS011;4063;48.140;10.250;2023-04-24T06:42:55;1.30;;;0.93;;
8040;SDS011;4063;48.140;10.250;2023-04-24T06:45:22;2.03;;;1.10;;
8040;SDS011;4063;48.140;10.250;2023-04-24T06:47:48;2.17;;;1.40;;
8040;SDS011;4063;48.140;10.250;2023-04-24T06:50:15;3.50;;;1.97;;
8040;SDS011;4063;48.140;10.250;2023-04-24T06:52:41;13.40;;;2.53;;
8040;SDS011;4063;48.140;10.250;2023-04-24T06:55:07;5.03;;;2.57;;
8040;SDS011;4063;48.140;10.250;2023-04-24T06:57:33;5.10;;;2.40;;
8040;SDS011;4063;48.140;10.250;2023-04-24T06:59:59;4.77;;;2.70;;
8040;SDS011;4063;48.140;10.250;2023-04-24T07:02:25;6.43;;;4.23;;
8040;SDS011;4063;48.140;10.250;2023-04-24T07:04:51;4.37;;;2.80;;
8040;SDS011;4063;48.140;10.250;2023-04-24T07:07:17;3.73;;;2.53;;
8040;SDS011;4063;48.140;10.250;2023-04-24T07:09:43;6.30;;;3.80;;
8040;SDS011;4063;48.140;10.250;2023-04-24T07:12:10;4.37;;;3.60;;
8040;SDS011;4063;48.140;10.250;2023-04-24T07:14:37;5.47;;;3.40;;
8040;SDS011;4063;48.140;10.250;2023-04-24T07:17:03;9.90;;;4.93;;
8040;SDS011;4063;48.140;10.250;2023-04-24T07:19:30;7.47;;;4.23;;
8040;SDS011;4063;48.140;10.250;2023-04-24T07:21:56;4.43;;;3.20;;
8040;SDS011;4063;48.140;10.250;2023-04-24T07:24:23;7.87;;;5.20;;
8040;SDS011;4063;48.140;10.250;2023-04-24T07:26:50;4.40;;;3.20;;
8040;SDS011;4063;48.140;10.250;2023-04-24T07:29:16;3.57;;;2.77;;
8040;SDS011;4063;48.140;10.250;2023-04-24T07:31:42;3.40;;;3.10;;
8040;SDS011;4063;48.140;10.250;2023-04-24T07:34:08;3.57;;;2.83;;
8040;SDS011;4063;48.140;10.250;2023-04-24T07:36:34;4.07;;;2.90;;
8040;SDS011;4063;48.140;10.250;2023-04-24T07:39:01;3.07;;;2.77;;
8040;SDS011;4063;48.140;10.250;2023-04-24T07:41:27;5.27;;;2.73;;
8040;SDS011;4063;48.140;10.250;2023-04-24T07:43:53;4.80;;;2.70;;
8040;SDS011;4063;48.140;10.250;2023-04-24T07:46:19;3.73;;;2.80;;
8040;SDS011;4063;48.140;10.250;2023-04-24T07:48:45;3.40;;;3.10;;
8040;SDS011;4063;48.140;10.250;2023-04-24T07:51:14;3.33;;;2.70;;
8040;SDS011;4063;48.140;10.250;2023-04-24T07:53:40;3.47;;;2.90;;
8040;SDS011;4063;48.140;10.250;2023-04-24T07:56:06;3.43;;;3.13;;
8040;SDS011;4063;48.140;10.250;2023-04-24T07:58:32;2.90;;;2.70;;
8040;SDS011;4063;48.140;10.250;2023-04-24T08:00:58;2.53;;;2.33;;
8040;SDS011;4063;48.140;10.250;2023-04-24T08:03:24;3.93;;;3.00;;
8040;SDS011;4063;48.140;10.250;2023-04-24T08:05:50;3.53;;;3.23;;
8040;SDS011;4063;48.140;10.250;2023-04-24T08:08:16;2.87;;;2.60;;
8040;SDS011;4063;48.140;10.250;2023-04-24T08:10:42;7.60;;;2.90;;
8040;SDS011;4063;48.140;10.250;2023-04-24T08:13:08;3.70;;;2.70;;
8040;SDS011;4063;48.140;10.250;2023-04-24T08:15:36;4.70;;;2.13;;
8040;SDS011;4063;48.140;10.250;2023-04-24T08:18:02;3.30;;;3.00;;
8040;SDS011;4063;48.140;10.250;2023-04-24T08:20:28;2.17;;;2.00;;
8040;SDS011;4063;48.140;10.250;2023-04-24T08:22:54;1.93;;;1.83;;
8040;SDS011;4063;48.140;10.250;2023-04-24T08:25:21;2.27;;;1.80;;
8040;SDS011;4063;48.140;10.250;2023-04-24T08:27:48;5.83;;;2.37;;
8040;SDS011;4063;48.140;10.250;2023-04-24T08:30:14;2.80;;;2.50;;
8040;SDS011;4063;48.140;10.250;2023-04-24T08:32:40;1.53;;;1.43;;
8040;SDS011;4063;48.140;10.250;2023-04-24T08:35:06;2.00;;;1.80;;
8040;SDS011;4063;48.140;10.250;2023-04-24T08:37:34;1.20;;;1.17;;
8040;SDS011;4063;48.140;10.250;2023-04-24T08:40:00;1.93;;;1.40;;
8040;SDS011;4063;48.140;10.250;2023-04-24T08:42:27;1.97;;;1.30;;
8040;SDS011;4063;48.140;10.250;2023-04-24T08:44:54;1.50;;;1.40;;
8040;SDS011;4063;48.140;10.250;2023-04-24T08:47:20;1.67;;;1.50;;
8040;SDS011;4063;48.140;10.250;2023-04-24T08:49:46;1.70;;;1.60;;
8040;SDS011;4063;48.140;10.250;2023-04-24T08:52:13;1.70;;;1.60;;
8040;SDS011;4063;48.140;10.250;2023-04-24T08:54:39;1.60;;;1.50;;
8040;SDS011;4063;48.140;10.250;2023-04-24T08:57:08;2.03;;;1.67;;
8040;SDS011;4063;48.140;10.250;2023-04-24T08:59:36;1.83;;;1.43;;
8040;SDS011;4063;48.140;10.250;2023-04-24T09:02:03;1.40;;;1.30;;
8040;SDS011;4063;48.140;10.250;2023-04-24T09:04:29;6.53;;;3.37;;
8040;SDS011;4063;48.140;10.250;2023-04-24T09:06:56;2.17;;;1.20;;
8040;SDS011;4063;48.140;10.250;2023-04-24T09:09:22;1.70;;;1.30;;
8040;SDS011;4063;48.140;10.250;2023-04-24T09:11:50;1.50;;;1.40;;
8040;SDS011;4063;48.140;10.250;2023-04-24T09:14:18;1.70;;;1.37;;
8040;SDS011;4063;48.140;10.250;2023-04-24T09:16:45;1.63;;;1.40;;
8040;SDS011;4063;48.140;10.250;2023-04-24T09:19:13;1.40;;;1.30;;
8040;SDS011;4063;48.140;10.250;2023-04-24T09:21:39;4.77;;;1.50;;
8040;SDS011;4063;48.140;10.250;2023-04-24T09:24:08;6.63;;;1.60;;
8040;SDS011;4063;48.140;10.250;2023-04-24T09:26:42;1.53;;;1.43;;
8040;SDS011;4063;48.140;10.250;2023-04-24T09:29:08;2.60;;;1.87;;
8040;SDS011;4063;48.140;10.250;2023-04-24T09:31:39;1.93;;;1.67;;
8040;SDS011;4063;48.140;10.250;2023-04-24T09:34:05;1.60;;;1.50;;
8040;SDS011;4063;48.140;10.250;2023-04-24T09:36:35;1.50;;;1.40;;
8040;SDS011;4063;48.140;10.250;2023-04-24T09:39:05;1.60;;;1.43;;
8040;SDS011;4063;48.140;10.250;2023-04-24T09:41:33;1.70;;;1.60;;
8040;SDS011;4063;48.140;10.250;2023-04-24T09:44:10;2.70;;;1.50;;
8040;SDS011;4063;48.140;10.250;2023-04-24T09:46:37;2.23;;;1.67;;
8040;SDS011;4063;48.140;10.250;2023-04-24T09:49:10;7.10;;;4.23;;
8040;SDS011;4063;48.140;10.250;2023-04-24T09:51:37;2.53;;;2.17;;
8040;SDS011;4063;48.140;10.250;2023-04-24T09:54:16;2.87;;;1.60;;
8040;SDS011;4063;48.140;10.250;2023-04-24T09:56:43;2.30;;;1.73;;
8040;SDS011;4063;48.140;10.250;2023-04-24T09:59:10;2.87;;;1.50;;
8040;SDS011;4063;48.140;10.250;2023-04-24T10:01:36;1.60;;;1.50;;
8040;SDS011;4063;48.140;10.250;2023-04-24T10:04:03;2.83;;;1.40;;
8040;SDS011;4063;48.140;10.250;2023-04-24T10:06:31;1.57;;;1.40;;
8040;SDS011;4063;48.140;10.250;2023-04-24T10:08:57;2.27;;;1.77;;
8040;SDS011;4063;48.140;10.250;2023-04-24T10:11:25;4.23;;;2.53;;
8040;SDS011;4063;48.140;10.250;2023-04-24T10:13:51;2.20;;;2.00;;
8040;SDS011;4063;48.140;10.250;2023-04-24T10:16:18;2.20;;;1.40;;
8040;SDS011;4063;48.140;10.250;2023-04-24T10:18:44;2.43;;;1.73;;
8040;SDS011;4063;48.140;10.250;2023-04-24T10:21:10;3.63;;;1.60;;
8040;SDS011;4063;48.140;10.250;2023-04-24T10:23:36;1.80;;;1.67;;
8040;SDS011;4063;48.140;10.250;2023-04-24T10:26:03;1.97;;;1.67;;
8040;SDS011;4063;48.140;10.250;2023-04-24T10:28:29;6.17;;;3.63;;
8040;SDS011;4063;48.140;10.250;2023-04-24T10:30:56;1.60;;;1.50;;
8040;SDS011;4063;48.140;10.250;2023-04-24T10:33:22;1.83;;;1.67;;
8040;SDS011;4063;48.140;10.250;2023-04-24T10:35:49;2.33;;;1.80;;
8040;SDS011;4063;48.140;10.250;2023-04-24T10:38:17;1.80;;;1.70;;
8040;SDS011;4063;48.140;10.250;2023-04-24T10:40:44;4.77;;;3.37;;
8040;SDS011;4063;48.140;10.250;2023-04-24T10:43:10;6.87;;;4.57;;
8040;SDS011;4063;48.140;10.250;2023-04-24T10:45:36;3.97;;;1.80;;
8040;SDS011;4063;48.140;10.250;2023-04-24T10:48:08;5.13;;;3.13;;
8040;SDS011;4063;48.140;10.250;2023-04-24T10:50:52;5.63;;;2.13;;
8040;SDS011;4063;48.140;10.250;2023-04-24T10:53:19;3.08;;;1.67;;
8040;SDS011;4063;48.140;10.250;2023-04-24T10:58:37;1.80;;;1.25;;
8040;SDS011;4063;48.140;10.250;2023-04-24T11:01:03;4.88;;;3.10;;
8040;SDS011;4063;48.140;10.250;2023-04-24T11:03:30;1.98;;;1.50;;
8040;SDS011;4063;48.140;10.250;2023-04-24T11:06:01;2.30;;;1.50;;
8040;SDS011;4063;48.140;10.250;2023-04-24T11:08:32;1.52;;;1.35;;
8040;SDS011;4063;48.140;10.250;2023-04-24T11:11:02;2.90;;;1.90;;
8040;SDS011;4063;48.140;10.250;2023-04-24T11:14:28;3.05;;;2.47;;
8040;SDS011;4063;48.140;10.250;2023-04-24T11:21:47;2.70;;;1.90;;
8040;SDS011;4063;48.140;10.250;2023-04-24T11:27:14;3.58;;;2.05;;
8040;SDS011;4063;48.140;10.250;2023-04-24T11:34:56;2.80;;;1.48;;
8040;SDS011;4063;48.140;10.250;2023-04-24T11:37:23;6.93;;;2.90;;
8040;SDS011;4063;48.140;10.250;2023-04-24T11:39:50;3.45;;;2.80;;
8040;SDS011;4063;48.140;10.250;2023-04-24T11:42:17;6.32;;;2.90;;
8040;SDS011;4063;48.140;10.250;2023-04-24T11:44:44;4.05;;;2.38;;
8040;SDS011;4063;48.140;10.250;2023-04-24T11:47:12;5.18;;;2.38;;
8040;SDS011;4063;48.140;10.250;2023-04-24T11:49:38;2.58;;;2.08;;
8040;SDS011;4063;48.140;10.250;2023-04-24T11:52:04;3.15;;;1.70;;
8040;SDS011;4063;48.140;10.250;2023-04-24T11:54:31;2.10;;;1.67;;
8040;SDS011;4063;48.140;10.250;2023-04-24T11:56:57;6.30;;;2.67;;
8040;SDS011;4063;48.140;10.250;2023-04-24T11:59:23;3.63;;;2.00;;
8040;SDS011;4063;48.140;10.250;2023-04-24T12:01:49;3.17;;;1.52;;
8040;SDS011;4063;48.140;10.250;2023-04-24T12:04:16;3.80;;;2.30;;
8040;SDS011;4063;48.140;10.250;2023-04-24T12:09:27;2.03;;;1.73;;
8040;SDS011;4063;48.140;10.250;2023-04-24T12:11:54;4.32;;;1.65;;
8040;SDS011;4063;48.140;10.250;2023-04-24T12:14:23;1.98;;;1.52;;
8040;SDS011;4063;48.140;10.250;2023-04-24T12:16:50;4.45;;;2.97;;
8040;SDS011;4063;48.140;10.250;2023-04-24T12:19:22;3.05;;;2.50;;
8040;SDS011;4063;48.140;10.250;2023-04-24T12:22:04;2.78;;;1.58;;
8040;SDS011;4063;48.140;10.250;2023-04-24T12:24:31;2.67;;;1.70;;
8040;SDS011;4063;48.140;10.250;2023-04-24T12:26:57;2.70;;;1.90;;
8040;SDS011;4063;48.140;10.250;2023-04-24T12:29:24;3.25;;;1.95;;
8040;SDS011;4063;48.140;10.250;2023-04-24T12:31:51;4.05;;;2.53;;
8040;SDS011;4063;48.140;10.250;2023-04-24T12:34:20;3.97;;;2.63;;
8040;SDS011;4063;48.140;10.250;2023-04-24T12:36:47;7.30;;;2.60;;
8040;SDS011;4063;48.140;10.250;2023-04-24T12:39:16;6.47;;;2.63;;
8040;SDS011;4063;48.140;10.250;2023-04-24T12:41:55;3.65;;;1.92;;
8040;SDS011;4063;48.140;10.250;2023-04-24T12:44:29;2.83;;;1.48;;
8040;SDS011;4063;48.140;10.250;2023-04-24T12:46:56;2.00;;;1.35;;
8040;SDS011;4063;48.140;10.250;2023-04-24T12:49:22;2.13;;;1.60;;
8040;SDS011;4063;48.140;10.250;2023-04-24T12:51:48;1.35;;;1.23;;
8040;SDS011;4063;48.140;10.250;2023-04-24T12:54:14;3.03;;;1.67;;
8040;SDS011;4063;48.140;10.250;2023-04-24T12:56:40;1.75;;;1.65;;
8040;SDS011;4063;48.140;10.250;2023-04-24T12:59:06;3.45;;;1.90;;
8040;SDS011;4063;48.140;10.250;2023-04-24T13:01:32;2.80;;;1.88;;
8040;SDS011;4063;48.140;10.250;2023-04-24T13:03:58;2.45;;;1.60;;
8040;SDS011;4063;48.140;10.250;2023-04-24T13:06:25;3.63;;;2.05;;
8040;SDS011;4063;48.140;10.250;2023-04-24T13:08:52;2.05;;;1.80;;
8040;SDS011;4063;48.140;10.250;2023-04-24T13:11:19;3.50;;;2.20;;
8040;SDS011;4063;48.140;10.250;2023-04-24T13:13:46;3.55;;;2.50;;
8040;SDS011;4063;48.140;10.250;2023-04-24T13:16:12;5.53;;;3.20;;
8040;SDS011;4063;48.140;10.250;2023-04-24T13:18:38;10.25;;;3.75;;
8040;SDS011;4063;48.140;10.250;2023-04-24T13:21:04;5.88;;;2.95;;
8040;SDS011;4063;48.140;10.250;2023-04-24T13:23:30;4.43;;;2.22;;
8040;SDS011;4063;48.140;10.250;2023-04-24T13:25:56;5.25;;;2.15;;
8040;SDS011;4063;48.140;10.250;2023-04-24T13:28:24;2.67;;;1.80;;
8040;SDS011;4063;48.140;10.250;2023-04-24T13:30:50;4.00;;;1.83;;
8040;SDS011;4063;48.140;10.250;2023-04-24T13:33:16;2.78;;;2.00;;
8040;SDS011;4063;48.140;10.250;2023-04-24T13:35:42;5.10;;;2.20;;
8040;SDS011;4063;48.140;10.250;2023-04-24T13:38:09;2.22;;;1.92;;
8040;SDS011;4063;48.140;10.250;2023-04-24T13:40:35;2.83;;;2.03;;
8040;SDS011;4063;48.140;10.250;2023-04-24T13:43:01;3.33;;;2.03;;
8040;SDS011;4063;48.140;10.250;2023-04-24T13:45:27;3.88;;;3.03;;
8040;SDS011;4063;48.140;10.250;2023-04-24T13:47:53;4.85;;;3.33;;
8040;SDS011;4063;48.140;10.250;2023-04-24T13:50:20;6.13;;;4.03;;
8040;SDS011;4063;48.140;10.250;2023-04-24T13:52:46;5.10;;;2.60;;
8040;SDS011;4063;48.140;10.250;2023-04-24T13:55:12;7.18;;;4.50;;
8040;SDS011;4063;48.140;10.250;2023-04-24T13:57:38;6.70;;;3.72;;
8040;SDS011;4063;48.140;10.250;2023-04-24T14:00:04;3.60;;;1.80;;
8040;SDS011;4063;48.140;10.250;2023-04-24T14:02:31;6.13;;;2.83;;
8040;SDS011;4063;48.140;10.250;2023-04-24T14:04:57;5.20;;;3.22;;
8040;SDS011;4063;48.140;10.250;2023-04-24T14:07:23;2.45;;;1.50;;
8040;SDS011;4063;48.140;10.250;2023-04-24T14:09:48;1.90;;;1.48;;
8040;SDS011;4063;48.140;10.250;2023-04-24T14:12:15;3.30;;;1.92;;
8040;SDS011;4063;48.140;10.250;2023-04-24T14:14:44;5.18;;;3.33;;
8040;SDS011;4063;48.140;10.250;2023-04-24T14:17:10;5.18;;;3.53;;
8040;SDS011;4063;48.140;10.250;2023-04-24T14:19:36;4.53;;;1.88;;
8040;SDS011;4063;48.140;10.250;2023-04-24T14:22:02;2.50;;;1.52;;
8040;SDS011;4063;48.140;10.250;2023-04-24T14:24:28;1.70;;;1.60;;
8040;SDS011;4063;48.140;10.250;2023-04-24T14:26:54;3.70;;;2.00;;
8040;SDS011;4063;48.140;10.250;2023-04-24T14:29:21;2.78;;;1.67;;
8040;SDS011;4063;48.140;10.250;2023-04-24T14:31:47;4.10;;;3.10;;
8040;SDS011;4063;48.140;10.250;2023-04-24T14:34:13;4.32;;;2.10;;
8040;SDS011;4063;48.140;10.250;2023-04-24T14:36:39;2.97;;;2.00;;
8040;SDS011;4063;48.140;10.250;2023-04-24T14:39:05;3.50;;;2.30;;
8040;SDS011;4063;48.140;10.250;2023-04-24T14:41:32;2.47;;;1.95;;
8040;SDS011;4063;48.140;10.250;2023-04-24T14:44:00;2.47;;;1.60;;
8040;SDS011;4063;48.140;10.250;2023-04-24T14:46:26;1.90;;;1.30;;
8040;SDS011;4063;48.140;10.250;2023-04-24T14:48:52;2.13;;;1.63;;
8040;SDS011;4063;48.140;10.250;2023-04-24T14:51:18;1.40;;;1.30;;
8040;SDS011;4063;48.140;10.250;2023-04-24T14:53:44;2.40;;;1.42;;
8040;SDS011;4063;48.140;10.250;2023-04-24T14:56:11;1.55;;;1.05;;
8040;SDS011;4063;48.140;10.250;2023-04-24T14:58:37;2.90;;;1.60;;
8040;SDS011;4063;48.140;10.250;2023-04-24T15:01:03;2.75;;;1.80;;
8040;SDS011;4063;48.140;10.250;2023-04-24T15:03:29;3.05;;;2.25;;
8040;SDS011;4063;48.140;10.250;2023-04-24T15:05:55;3.25;;;1.45;;
8040;SDS011;4063;48.140;10.250;2023-04-24T15:08:21;3.15;;;1.10;;
8040;SDS011;4063;48.140;10.250;2023-04-24T15:10:47;3.58;;;1.40;;
8040;SDS011;4063;48.140;10.250;2023-04-24T15:13:13;1.80;;;1.30;;
8040;SDS011;4063;48.140;10.250;2023-04-24T15:15:39;1.30;;;1.20;;